Time;durP1;ratioP1;P1;durP2;ratioP2;P2;SDS_P1;SDS_P2;PMS_P1;PMS_P2;Temp;Humidity;BMP_temperature;BMP_pressure;BME280_temperature;BME280_humidity;BME280_pressure;Samples;Min_cycle;Max_cycle;Signal;HPM_P1;HPM_P2
2023/12/26 00:03:06;;;;;;;1.10;0.30;;;;;;;10.66;100.00;99333.84;12209298;19;19925;-80
2023/12/26 00:07:09;;;;;;;2.63;0.60;;;;;;;10.65;100.00;99329.44;12212243;19;20010;-80
2023/12/26 00:11:11;;;;;;;0.40;0.40;;;;;;;10.68;100.00;99339.09;12191024;19;20457;-80
2023/12/26 00:15:13;;;;;;;1.13;0.50;;;;;;;10.68;100.00;99325.34;12213651;19;20267;-81
2023/12/26 00:19:15;;;;;;;0.47;0.40;;;;;;;10.62;100.00;99332.72;12213299;19;20083;-80
2023/12/26 00:23:18;;;;;;;;;;;;;;;10.58;100.00;99322.47;12193264;19;20255;-80
2023/12/26 00:27:26;;;;;;;1.38;0.45;;;;;;;10.62;100.00;99329.09;12211444;19;19970;-80
2023/12/26 00:31:30;;;;;;;0.57;0.40;;;;;;;10.55;100.00;99312.81;12210569;19;20027;-81
2023/12/26 00:35:35;;;;;;;0.93;0.50;;;;;;;10.53;100.00;99308.63;12183797;19;20021;-79
2023/12/26 00:39:38;;;;;;;;;;;;;;;10.48;100.00;99310.25;12218004;19;20003;-78
2023/12/26 00:43:40;;;;;;;0.90;0.40;;;;;;;10.52;100.00;99304.22;12234705;19;19911;-81
2023/12/26 00:47:43;;;;;;;0.32;0.32;;;;;;;10.57;100.00;99304.28;12230570;19;20010;-81
2023/12/26 00:51:47;;;;;;;0.35;0.35;;;;;;;10.56;100.00;99299.84;12253543;19;20010;-76
2023/12/26 00:55:53;;;;;;;0.90;0.40;;;;;;;10.60;100.00;99299.06;12250375;19;20010;-79
2023/12/26 00:59:55;;;;;;;0.70;0.30;;;;;;;10.61;100.00;99295.22;12211293;19;20140;-77
2023/12/26 01:03:58;;;;;;;0.40;0.32;;;;;;;10.67;100.00;99304.34;12235621;19;20014;-81
2023/12/26 01:08:00;;;;;;;2.73;0.63;;;;;;;10.69;100.00;99297.50;12203284;19;20014;-77
2023/12/26 01:12:03;;;;;;;0.60;0.38;;;;;;;10.70;100.00;99295.56;12228943;19;20006;-77
2023/12/26 01:16:09;;;;;;;0.30;0.30;;;;;;;10.66;100.00;99295.28;12211477;19;20007;-80
2023/12/26 01:20:11;;;;;;;2.63;0.60;;;;;;;10.62;100.00;99299.66;12193240;19;20101;-83
2023/12/26 01:24:13;;;;;;;0.60;0.50;;;;;;;10.67;100.00;99296.09;12170316;19;20010;-79
2023/12/26 01:28:16;;;;;;;;;;;;;;;10.58;100.00;99297.66;12208200;19;20006;-80
2023/12/26 01:32:22;;;;;;;1.02;0.65;;;;;;;10.65;100.00;99306.56;12184998;19;19918;-81
2023/12/26 01:36:25;;;;;;;2.85;0.60;;;;;;;10.65;100.00;99310.16;12221885;19;20023;-80
2023/12/26 01:40:41;;;;;;;0.88;0.55;;;;;;;10.68;100.00;99314.31;12210636;19;20371;-81
2023/12/26 01:44:45;;;;;;;0.73;0.50;;;;;;;10.69;100.00;99318.72;12183250;19;20014;-80
2023/12/26 01:48:52;;;;;;;1.90;0.80;;;;;;;10.62;100.00;99321.69;12201960;19;20006;-81
2023/12/26 01:52:55;;;;;;;1.10;0.60;;;;;;;10.62;100.00;99323.59;12195325;19;20014;-83
2023/12/26 01:56:59;;;;;;;1.30;0.70;;;;;;;10.67;100.00;99332.75;12197091;19;20091;-80
2023/12/26 02:01:03;;;;;;;1.02;0.60;;;;;;;10.59;100.00;99336.00;12198789;19;20077;-79
2023/12/26 02:05:06;;;;;;;1.35;0.70;;;;;;;10.60;100.00;99342.34;12176609;19;20017;-83
2023/12/26 02:09:12;;;;;;;1.50;0.65;;;;;;;10.55;100.00;99328.50;12204543;19;20011;-82
2023/12/26 02:13:14;;;;;;;1.90;0.70;;;;;;;10.45;100.00;99352.09;12209350;19;20070;-82
2023/12/26 02:17:21;;;;;;;2.33;0.70;;;;;;;10.48;100.00;99342.50;12194515;19;20000;-84
2023/12/26 02:21:23;;;;;;;1.35;0.75;;;;;;;10.48;100.00;99361.78;12216890;19;20014;-84
2023/12/26 02:25:25;;;;;;;7.28;0.60;;;;;;;10.52;100.00;99362.09;12213191;19;20046;-79
2023/12/26 02:29:28;;;;;;;;;;;;;;;10.45;100.00;99352.09;12192480;19;20063;-80
2023/12/26 02:33:35;;;;;;;2.47;0.80;;;;;;;10.40;100.00;99365.00;12212988;19;20358;-80
2023/12/26 02:37:37;;;;;;;4.97;1.05;;;;;;;10.35;100.00;99363.03;12211727;19;20477;-81
2023/12/26 02:41:39;;;;;;;4.75;0.70;;;;;;;10.49;100.00;99372.53;12189347;19;20030;-85
2023/12/26 02:45:42;;;;;;;2.55;1.10;;;;;;;10.44;100.00;99363.38;12218243;19;20010;-82
2023/12/26 02:49:44;;;;;;;2.70;0.95;;;;;;;10.54;100.00;99360.75;12210993;19;20006;-80
2023/12/26 02:53:45;;;;;;;7.32;1.30;;;;;;;10.53;100.00;99361.84;12190467;19;20714;-80
2023/12/26 02:57:47;;;;;;;3.25;0.93;;;;;;;10.51;100.00;99361.25;12207509;19;20010;-84
2023/12/26 03:01:50;;;;;;;3.22;0.98;;;;;;;10.44;100.00;99361.47;12214854;19;20010;-83
2023/12/26 03:05:55;;;;;;;3.28;1.08;;;;;;;10.29;100.00;99327.41;12190559;19;20477;-81
2023/12/26 03:10:03;;;;;;;6.00;1.35;;;;;;;10.35;100.00;99320.88;12210820;19;20010;-80
2023/12/26 03:14:05;;;;;;;4.45;1.30;;;;;;;10.37;100.00;99326.97;12190925;19;20007;-80
2023/12/26 03:18:08;;;;;;;;;;;;;;;10.36;100.00;99322.56;12213049;19;20011;-80
2023/12/26 03:22:12;;;;;;;6.43;1.45;;;;;;;10.44;100.00;99333.94;12207077;19;19917;-82
2023/12/26 03:26:15;;;;;;;3.55;1.40;;;;;;;10.44;100.00;99322.91;12185747;19;20026;-78
2023/12/26 03:30:17;;;;;;;6.90;1.80;;;;;;;10.43;100.00;99337.75;12207183;19;20017;-80
2023/12/26 03:34:19;;;;;;;8.82;1.48;;;;;;;10.42;100.00;99336.09;12208932;19;20105;-79
2023/12/26 03:38:23;;;;;;;4.70;1.45;;;;;;;10.35;100.00;99346.50;12190484;19;20011;-80
2023/12/26 03:42:25;;;;;;;3.10;1.25;;;;;;;10.36;100.00;99342.66;12210556;19;20078;-81
2023/12/26 03:46:26;;;;;;;3.10;1.45;;;;;;;10.40;100.00;99338.28;12207874;19;20356;-82
2023/12/26 03:50:28;;;;;;;12.25;2.40;;;;;;;10.40;100.00;99335.53;12185417;19;20011;-83
2023/12/26 03:54:31;;;;;;;3.13;1.33;;;;;;;10.43;100.00;99347.94;12208051;19;20011;-81
2023/12/26 03:58:33;;;;;;;3.97;1.50;;;;;;;10.39;100.00;99347.66;12208836;19;20356;-83
2023/12/26 04:02:36;;;;;;;2.83;1.17;;;;;;;10.41;100.00;99344.63;12189383;19;20370;-81
2023/12/26 04:06:38;;;;;;;8.43;1.77;;;;;;;10.40;100.00;99346.53;12213818;19;20343;-83
2023/12/26 04:10:40;;;;;;;4.43;1.30;;;;;;;10.43;100.00;99337.75;12220771;19;20015;-86
2023/12/26 04:14:42;;;;;;;4.30;1.10;;;;;;;10.42;100.00;99344.38;12227552;19;20369;-83
2023/12/26 04:18:44;;;;;;;6.27;1.60;;;;;;;10.47;100.00;99338.09;12252988;19;20011;-84
2023/12/26 04:22:47;;;;;;;9.57;2.13;;;;;;;10.48;100.00;99348.84;12253340;19;20027;-81
2023/12/26 04:26:50;;;;;;;;;;;;;;;10.51;100.00;99335.63;12213375;19;20011;-81
2023/12/26 04:30:53;;;;;;;7.50;1.63;;;;;;;10.46;100.00;99333.66;12213210;19;19911;-81
2023/12/26 04:34:55;;;;;;;5.53;1.13;;;;;;;10.41;100.00;99333.59;12204559;19;20010;-81
2023/12/26 04:38:58;;;;;;;;;;;;;;;10.48;100.00;99320.47;12216180;19;20019;-78
2023/12/26 04:43:02;;;;;;;4.65;1.45;;;;;;;10.47;100.00;99344.44;12214553;19;19915;-80
2023/12/26 04:47:04;;;;;;;5.38;1.67;;;;;;;10.48;100.00;99329.56;12184037;19;20472;-80
2023/12/26 04:51:07;;;;;;;4.60;1.38;;;;;;;10.47;100.00;99343.59;12210475;19;20027;-83
2023/12/26 04:55:09;;;;;;;10.27;1.60;;;;;;;10.52;100.00;99329.84;12203814;19;20003;-81
2023/12/26 04:59:13;;;;;;;10.00;2.25;;;;;;;10.54;100.00;99346.97;12185464;19;20697;-78
2023/12/26 05:03:16;;;;;;;6.53;1.83;;;;;;;10.63;100.00;99350.06;12207545;19;20374;-78
2023/12/26 05:07:20;;;;;;;8.55;1.58;;;;;;;10.54;100.00;99365.41;12205225;19;20011;-81
2023/12/26 05:11:23;;;;;;;5.15;1.70;;;;;;;10.53;100.00;99369.25;12201847;19;20017;-82
2023/12/26 05:15:26;;;;;;;6.70;1.63;;;;;;;10.53;100.00;99383.03;12252151;19;20020;-82
2023/12/26 05:19:28;;;;;;;6.03;1.43;;;;;;;10.56;100.00;99379.75;12211957;19;20014;-81
2023/12/26 05:23:38;;;;;;;6.22;1.65;;;;;;;10.59;100.00;99395.75;12197832;19;20018;-79
2023/12/26 05:27:42;;;;;;;7.93;1.95;;;;;;;10.63;100.00;99394.16;12239205;19;20015;-81
2023/12/26 05:31:44;;;;;;;5.07;1.53;;;;;;;10.62;100.00;99406.25;12258106;19;20010;-82
2023/12/26 05:35:47;;;;;;;7.85;1.77;;;;;;;10.62;100.00;99400.75;12206005;19;20011;-85
2023/12/26 05:39:50;;;;;;;8.27;1.67;;;;;;;10.56;100.00;99399.88;12210662;19;20364;-81
2023/12/26 05:43:52;;;;;;;;;;;;;;;10.55;100.00;99406.47;12206854;19;20011;-81
2023/12/26 05:47:54;;;;;;;3.72;1.20;;;;;;;10.49;100.00;99421.28;12190822;19;19917;-79
2023/12/26 05:51:56;;;;;;;7.37;2.13;;;;;;;10.61;100.00;99421.97;12211853;19;20002;-77
2023/12/26 05:56:03;;;;;;;4.40;1.33;;;;;;;10.58;100.00;99427.16;12188884;19;20011;-82
2023/12/26 06:00:05;;;;;;;;;;;;;;;10.56;100.00;99421.94;12211640;19;20010;-80
2023/12/26 06:04:16;;;;;;;6.65;1.67;;;;;;;10.52;100.00;99428.19;12209720;19;19914;-81
2023/12/26 06:08:18;;;;;;;5.90;1.50;;;;;;;10.55;100.00;99442.28;12192885;19;20039;-80
2023/12/26 06:12:20;;;;;;;5.35;1.90;;;;;;;10.57;100.00;99442.88;12214876;19;20027;-80
2023/12/26 06:16:22;;;;;;;2.87;1.20;;;;;;;10.51;100.00;99448.59;12217823;19;20002;-81
2023/12/26 06:20:24;;;;;;;8.02;1.60;;;;;;;10.47;100.00;99465.63;12192881;19;20090;-81
2023/12/26 06:24:26;;;;;;;8.05;1.40;;;;;;;10.55;100.00;99474.53;12214442;19;20046;-85
2023/12/26 06:28:29;;;;;;;2.92;1.10;;;;;;;10.48;100.00;99470.03;12215627;19;20454;-82
2023/12/26 06:32:31;;;;;;;5.65;2.00;;;;;;;10.45;100.00;99466.97;12196237;19;20010;-82
2023/12/26 06:36:33;;;;;;;7.38;1.40;;;;;;;10.49;100.00;99482.72;12217401;19;20006;-80
2023/12/26 06:40:35;;;;;;;6.03;1.40;;;;;;;10.46;100.00;99471.38;12215870;19;20379;-83
2023/12/26 06:44:37;;;;;;;5.28;1.50;;;;;;;10.44;100.00;99488.19;12184820;19;20002;-78
2023/12/26 06:48:39;;;;;;;4.70;1.40;;;;;;;10.43;100.00;99504.94;12210761;19;20817;-78
2023/12/26 06:52:41;;;;;;;8.88;2.00;;;;;;;10.52;100.00;99500.66;12214792;19;20277;-78
2023/12/26 06:56:43;;;;;;;8.70;1.80;;;;;;;10.47;100.00;99503.38;12188206;19;20018;-79
2023/12/26 07:00:45;;;;;;;9.20;1.50;;;;;;;10.50;100.00;99508.38;12214967;19;20501;-78
2023/12/26 07:04:47;;;;;;;5.10;1.50;;;;;;;10.44;100.00;99503.84;12213450;19;20011;-79
2023/12/26 07:08:49;;;;;;;9.93;1.35;;;;;;;10.45;100.00;99511.03;12189359;19;20010;-83
2023/12/26 07:12:51;;;;;;;6.10;1.37;;;;;;;10.39;100.00;99518.41;12214270;19;20006;-81
2023/12/26 07:16:53;;;;;;;4.38;1.42;;;;;;;10.44;100.00;99521.25;12209910;19;20024;-80
2023/12/26 07:20:54;;;;;;;13.48;2.53;;;;;;;10.48;100.00;99538.91;12186480;19;20082;-84
2023/12/26 07:24:56;;;;;;;8.07;1.40;;;;;;;10.56;100.00;99537.66;12212424;19;20371;-78
2023/12/26 07:28:58;;;;;;;7.07;1.65;;;;;;;10.46;100.00;99532.00;12188184;19;20014;-78
2023/12/26 07:33:00;;;;;;;3.90;1.45;;;;;;;10.47;100.00;99536.44;12204511;19;20021;-78
2023/12/26 07:37:04;;;;;;;4.45;1.15;;;;;;;10.44;100.00;99548.78;12207049;19;20090;-80
2023/12/26 07:41:06;;;;;;;5.82;1.25;;;;;;;10.48;100.00;99566.47;12189216;19;20006;-82
2023/12/26 07:45:08;;;;;;;10.60;2.28;;;;;;;10.48;100.00;99571.97;12208558;19;20073;-81
2023/12/26 07:49:09;;;;;;;3.90;1.20;;;;;;;10.39;100.00;99581.75;12206954;19;20006;-80
2023/12/26 07:53:12;;;;;;;13.45;1.60;;;;;;;10.49;100.00;99600.34;12188278;19;20376;-79
2023/12/26 07:57:13;;;;;;;6.10;2.15;;;;;;;10.44;100.00;99606.63;12208243;19;20011;-79
2023/12/26 08:01:16;;;;;;;7.23;1.80;;;;;;;10.43;100.00;99595.84;12210091;19;20078;-81
2023/12/26 08:05:18;;;;;;;9.30;1.38;;;;;;;10.45;100.00;99610.22;12185293;19;21377;-83
2023/12/26 08:09:20;;;;;;;8.35;1.58;;;;;;;10.44;100.00;99620.41;12209055;19;20010;-79
2023/12/26 08:13:24;;;;;;;5.60;1.13;;;;;;;10.46;100.00;99618.22;12207913;19;20013;-82
2023/12/26 08:17:25;;;;;;;6.97;1.55;;;;;;;10.46;100.00;99634.75;12185031;19;20027;-82
2023/12/26 08:21:27;;;;;;;3.78;0.98;;;;;;;10.50;100.00;99637.84;12207577;19;20490;-79
2023/12/26 08:25:29;;;;;;;5.85;1.60;;;;;;;10.52;100.00;99643.09;12208020;19;20022;-79
2023/12/26 08:29:34;;;;;;;3.72;1.30;;;;;;;10.43;100.00;99639.94;12189901;19;20014;-80
2023/12/26 08:33:39;;;;;;;3.35;1.23;;;;;;;10.46;100.00;99645.75;12240817;19;20007;-84
2023/12/26 08:37:41;;;;;;;3.85;1.30;;;;;;;10.45;100.00;99652.38;12221566;19;20006;-81
2023/12/26 08:41:43;;;;;;;4.47;1.10;;;;;;;10.43;100.00;99659.22;12189018;19;20694;-79
2023/12/26 08:45:45;;;;;;;2.47;1.10;;;;;;;10.47;100.00;99663.97;12203857;19;20031;-79
2023/12/26 08:49:47;;;;;;;2.92;1.15;;;;;;;10.47;100.00;99669.47;12209696;19;20582;-80
2023/12/26 08:53:52;;;;;;;4.82;1.52;;;;;;;10.46;100.00;99673.31;12190883;19;20368;-84
2023/12/26 08:57:54;;;;;;;3.65;1.08;;;;;;;10.54;100.00;99679.50;12208608;19;20006;-82
2023/12/26 09:01:56;;;;;;;3.20;1.20;;;;;;;10.56;100.00;99697.44;12188895;19;20491;-79
2023/12/26 09:05:58;;;;;;;2.35;0.77;;;;;;;10.54;100.00;99709.81;12192080;19;20494;-81
2023/12/26 09:10:02;;;;;;;3.22;1.02;;;;;;;10.38;100.00;99726.09;12188802;19;20028;-79
2023/12/26 09:14:04;;;;;;;2.15;1.10;;;;;;;10.54;100.00;99729.09;12161116;19;20014;-81
2023/12/26 09:18:06;;;;;;;2.30;1.00;;;;;;;10.48;100.00;99726.25;12203110;19;20003;-79
2023/12/26 09:22:08;;;;;;;4.20;0.80;;;;;;;10.54;100.00;99737.34;12206157;19;20018;-79
2023/12/26 09:26:10;;;;;;;2.60;1.37;;;;;;;10.45;100.00;99743.28;12192269;19;20015;-79
2023/12/26 09:30:13;;;;;;;2.47;0.80;;;;;;;10.47;100.00;99754.88;12211674;19;20826;-81
2023/12/26 09:34:15;;;;;;;4.35;1.02;;;;;;;10.49;100.00;99760.13;12214000;19;20095;-81
2023/12/26 09:38:17;;;;;;;0.83;0.70;;;;;;;10.44;100.00;99758.13;12193827;19;20029;-81
2023/12/26 09:42:24;;;;;;;4.63;1.00;;;;;;;10.48;100.00;99762.06;12211855;19;20473;-81
2023/12/26 09:46:30;;;;;;;3.72;0.73;;;;;;;10.47;100.00;99765.91;12211089;19;20011;-81
2023/12/26 09:50:32;;;;;;;1.90;0.98;;;;;;;10.43;100.00;99775.72;12192037;19;20009;-79
2023/12/26 09:54:42;;;;;;;3.58;1.05;;;;;;;10.40;100.00;99780.91;12209243;19;20070;-81
2023/12/26 09:58:49;;;;;;;2.70;0.87;;;;;;;10.38;100.00;99791.34;12211387;19;20011;-83
2023/12/26 10:02:55;;;;;;;0.95;0.60;;;;;;;10.30;100.00;99794.53;12191085;19;20014;-80
2023/12/26 10:06:58;;;;;;;3.03;0.70;;;;;;;10.33;100.00;99792.09;12210227;19;20002;-80
2023/12/26 10:11:00;;;;;;;5.78;2.47;;;;;;;10.39;100.00;99799.38;12192090;19;20028;-84
2023/12/26 10:15:06;;;;;;;3.05;1.30;;;;;;;10.36;100.00;99797.13;12213672;19;20006;-79
2023/12/26 10:19:13;;;;;;;1.38;0.80;;;;;;;10.39;100.00;99806.81;12212400;19;20031;-80
2023/12/26 10:23:17;;;;;;;0.93;0.60;;;;;;;10.50;100.00;99816.91;12191835;19;19999;-82
2023/12/26 10:27:22;;;;;;;1.02;0.70;;;;;;;10.53;100.00;99807.28;12211144;19;20055;-81
2023/12/26 10:31:26;;;;;;;0.80;0.60;;;;;;;10.52;100.00;99814.72;12220508;19;20101;-80
2023/12/26 10:35:31;;;;;;;0.77;0.50;;;;;;;10.49;100.00;99816.06;12188527;19;20079;-82
2023/12/26 10:39:34;;;;;;;0.68;0.52;;;;;;;10.47;100.00;99823.75;12215956;19;20011;-80
2023/12/26 10:43:43;;;;;;;1.27;0.80;;;;;;;10.46;100.00;99835.84;12216418;19;20010;-81
2023/12/26 10:47:48;;;;;;;0.73;0.40;;;;;;;10.47;100.00;99832.03;12193254;19;20357;-80
2023/12/26 10:51:52;;;;;;;1.25;0.50;;;;;;;10.66;100.00;99831.78;12215345;19;20013;-82
2023/12/26 10:55:55;;;;;;;0.70;0.50;;;;;;;10.84;100.00;99811.41;12207405;19;20038;-79
2023/12/26 10:59:57;;;;;;;0.85;0.40;;;;;;;10.99;100.00;99816.31;12188408;19;20376;-78
2023/12/26 11:03:59;;;;;;;1.25;0.40;;;;;;;11.20;100.00;99843.09;12213498;19;20371;-81
2023/12/26 11:08:01;;;;;;;1.30;0.50;;;;;;;11.09;100.00;99841.28;12191688;19;20003;-80
2023/12/26 11:12:04;;;;;;;1.15;0.60;;;;;;;10.82;100.00;99824.59;12210339;19;21308;-85
2023/12/26 11:16:06;;;;;;;2.67;0.50;;;;;;;10.70;100.00;99824.69;12209762;19;20010;-79
2023/12/26 11:20:08;;;;;;;2.28;0.60;;;;;;;10.79;100.00;99809.38;12186097;19;20014;-80
2023/12/26 11:24:10;;;;;;;2.03;0.70;;;;;;;10.98;100.00;99822.94;12199636;19;20018;-80
2023/12/26 11:28:12;;;;;;;1.92;0.65;;;;;;;11.09;100.00;99830.25;12211191;19;20003;-81
2023/12/26 11:32:16;;;;;;;2.47;0.50;;;;;;;11.17;100.00;99824.31;12191834;19;20008;-79
2023/12/26 11:36:18;;;;;;;1.47;0.40;;;;;;;11.24;100.00;99816.69;12205094;19;20035;-79
2023/12/26 11:40:21;;;;;;;0.60;0.43;;;;;;;11.28;100.00;99823.38;12201031;19;20030;-80
2023/12/26 11:44:23;;;;;;;2.25;0.65;;;;;;;11.40;100.00;99817.75;12191153;19;20485;-80
2023/12/26 11:48:26;;;;;;;1.08;0.70;;;;;;;11.38;100.00;99814.41;12242170;19;20247;-82
2023/12/26 11:52:34;;;;;;;0.88;0.70;;;;;;;11.50;100.00;99823.38;12243392;19;20557;-80
2023/12/26 11:56:37;;;;;;;2.17;0.88;;;;;;;11.43;100.00;99824.69;12203607;19;20011;-78
2023/12/26 12:00:39;;;;;;;2.67;0.70;;;;;;;11.42;100.00;99826.56;12210420;19;20018;-79
2023/12/26 12:04:41;;;;;;;1.53;0.53;;;;;;;11.67;100.00;99831.63;12204919;19;20019;-80
2023/12/26 12:09:02;;;;;;;0.82;0.52;;;;;;;11.95;100.00;99821.47;12184353;19;20021;-80
2023/12/26 12:13:04;;;;;;;0.75;0.60;;;;;;;12.06;100.00;99820.50;12213481;19;20006;-80
2023/12/26 12:17:15;;;;;;;1.15;0.50;;;;;;;11.89;100.00;99820.59;12185631;19;20026;-82
2023/12/26 12:21:18;;;;;;;1.20;0.55;;;;;;;11.70;100.00;99820.06;12199206;19;20007;-80
2023/12/26 12:25:20;;;;;;;1.33;0.50;;;;;;;11.63;100.00;99824.94;12206051;19;20033;-79
2023/12/26 12:29:23;;;;;;;1.40;0.60;;;;;;;11.54;100.00;99818.19;12202304;19;20058;-84
2023/12/26 12:33:40;;;;;;;2.67;0.80;;;;;;;11.51;100.00;99816.78;12249712;19;20006;-85
2023/12/26 12:37:45;;;;;;;1.00;0.60;;;;;;;11.60;100.00;99830.97;12257582;19;20044;-84
2023/12/26 12:41:50;;;;;;;1.00;0.57;;;;;;;11.63;100.00;99824.94;12233788;19;20085;-83
2023/12/26 12:45:52;;;;;;;1.52;0.60;;;;;;;11.75;100.00;99817.38;12210417;19;20010;-81
2023/12/26 12:49:54;;;;;;;1.27;0.60;;;;;;;11.94;100.00;99803.25;12215369;19;20002;-83
2023/12/26 12:53:59;;;;;;;2.88;1.25;;;;;;;12.12;100.00;99808.41;12185310;19;20017;-81
2023/12/26 12:58:01;;;;;;;1.80;0.90;;;;;;;12.26;100.00;99815.19;12201109;19;20003;-80
2023/12/26 13:02:07;;;;;;;1.73;0.77;;;;;;;12.19;100.00;99819.25;12178660;19;20035;-80
2023/12/26 13:06:16;;;;;;;0.98;0.70;;;;;;;12.05;100.00;99819.69;12198645;19;20031;-81
2023/12/26 13:10:17;;;;;;;0.90;0.47;;;;;;;11.92;100.00;99817.31;12205575;19;20014;-77
2023/12/26 13:14:20;;;;;;;2.30;0.60;;;;;;;11.80;100.00;99819.34;12179032;19;20091;-80
2023/12/26 13:18:27;;;;;;;1.15;0.75;;;;;;;11.94;100.00;99831.69;12204551;19;20007;-83
2023/12/26 13:22:29;;;;;;;1.05;0.65;;;;;;;12.09;100.00;99842.09;12201712;19;20027;-80
2023/12/26 13:26:39;;;;;;;2.22;0.50;;;;;;;12.06;100.00;99839.84;12175791;19;20010;-84
2023/12/26 13:30:46;;;;;;;1.23;0.60;;;;;;;11.92;100.00;99855.13;12199368;19;20042;-80
2023/12/26 13:34:50;;;;;;;0.90;0.60;;;;;;;11.86;100.00;99851.47;12201871;19;20009;-80
2023/12/26 13:38:52;;;;;;;0.70;0.60;;;;;;;11.82;100.00;99845.59;12178191;19;20114;-80
2023/12/26 13:42:54;;;;;;;1.08;0.68;;;;;;;11.72;100.00;99847.41;12204193;19;20022;-79
2023/12/26 13:46:57;;;;;;;1.65;0.90;;;;;;;11.67;100.00;99847.34;12196113;19;20046;-81
2023/12/26 13:50:58;;;;;;;1.02;0.65;;;;;;;11.70;100.00;99855.94;12177662;19;20017;-79
2023/12/26 13:55:00;;;;;;;1.17;0.50;;;;;;;11.68;100.00;99855.34;12195195;19;20021;-80
2023/12/26 13:59:02;;;;;;;0.90;0.55;;;;;;;11.80;100.00;99864.34;12175476;19;20011;-79
2023/12/26 14:03:05;;;;;;;2.78;1.05;;;;;;;11.93;100.00;99857.66;12198475;19;20010;-78
2023/12/26 14:07:07;;;;;;;1.42;0.63;;;;;;;11.96;100.00;99865.41;12202405;19;20007;-84
2023/12/26 14:11:09;;;;;;;0.95;0.75;;;;;;;12.06;100.00;99875.75;12190682;19;20739;-78
2023/12/26 14:15:12;;;;;;;1.70;0.82;;;;;;;12.14;100.00;99863.41;12215731;19;20007;-83
2023/12/26 14:19:14;;;;;;;1.40;0.90;;;;;;;12.06;100.00;99875.75;12208758;19;20022;-78
2023/12/26 14:23:16;;;;;;;1.20;0.90;;;;;;;12.15;100.00;99876.97;12217140;19;20015;-84
2023/12/26 14:27:18;;;;;;;1.25;0.65;;;;;;;12.17;100.00;99888.59;12252527;19;20009;-80
2023/12/26 14:31:23;;;;;;;3.08;0.95;;;;;;;12.04;100.00;99891.72;12249970;19;20541;-81
2023/12/26 14:35:26;;;;;;;1.08;0.80;;;;;;;11.92;100.00;99888.28;12192614;19;20023;-78
2023/12/26 14:39:29;;;;;;;1.73;0.70;;;;;;;11.80;100.00;99896.66;12206836;19;20014;-80
2023/12/26 14:43:32;;;;;;;1.58;0.82;;;;;;;11.67;100.00;99897.03;12210281;19;20327;-79
2023/12/26 14:47:34;;;;;;;2.40;1.00;;;;;;;11.62;100.00;99900.53;12181327;19;20024;-77
2023/12/26 14:51:35;;;;;;;1.73;0.85;;;;;;;11.52;100.00;99906.75;12209356;19;20030;-80
2023/12/26 14:55:37;;;;;;;1.60;0.73;;;;;;;11.41;100.00;99922.31;12210844;19;20039;-80
2023/12/26 14:59:40;;;;;;;0.82;0.57;;;;;;;11.35;100.00;99923.34;12216818;19;20006;-82
2023/12/26 15:03:42;;;;;;;1.35;0.70;;;;;;;11.30;100.00;99920.50;12209293;19;20003;-79
2023/12/26 15:07:44;;;;;;;0.70;0.40;;;;;;;11.24;100.00;99931.69;12201796;19;20007;-79
2023/12/26 15:11:49;;;;;;;1.48;0.85;;;;;;;11.28;100.00;99949.44;12180338;19;20326;-77
2023/12/26 15:15:51;;;;;;;1.13;0.77;;;;;;;11.22;100.00;99948.50;12202645;19;20010;-80
2023/12/26 15:19:53;;;;;;;1.77;0.80;;;;;;;11.15;100.00;99959.72;12201998;19;20348;-79
2023/12/26 15:23:57;;;;;;;1.90;1.00;;;;;;;11.05;100.00;99953.19;12182754;19;20010;-79
2023/12/26 15:28:00;;;;;;;2.80;1.20;;;;;;;10.97;100.00;99959.94;12201572;19;20007;-80
2023/12/26 15:32:03;;;;;;;2.05;1.05;;;;;;;10.93;100.00;99965.09;12157761;19;20014;-79
2023/12/26 15:36:05;;;;;;;1.42;0.80;;;;;;;10.86;100.00;99974.63;12184212;19;20014;-79
2023/12/26 15:40:08;;;;;;;2.42;0.63;;;;;;;10.81;100.00;99977.28;12181776;19;20031;-81
2023/12/26 15:44:10;;;;;;;3.03;1.03;;;;;;;10.74;100.00;99977.44;12201462;19;20015;-80
2023/12/26 15:48:13;;;;;;;1.53;1.20;;;;;;;10.60;100.00;99987.94;12201418;19;20018;-78
2023/12/26 15:52:15;;;;;;;1.58;1.17;;;;;;;10.42;100.00;99985.38;12177200;19;20260;-79
2023/12/26 15:56:20;;;;;;;4.57;2.13;;;;;;;10.26;100.00;99996.06;12193461;19;20010;-78
2023/12/26 16:00:22;;;;;;;4.45;2.17;;;;;;;10.16;100.00;100009.56;12197668;19;20010;-80
2023/12/26 16:04:24;;;;;;;2.47;1.35;;;;;;;10.04;100.00;100017.84;12178321;19;20107;-80
2023/12/26 16:08:27;;;;;;;5.88;2.80;;;;;;;10.02;100.00;100025.53;12201625;19;20018;-78
2023/12/26 16:12:28;;;;;;;3.78;2.63;;;;;;;10.03;100.00;100016.19;12203305;19;20014;-79
2023/12/26 16:16:32;;;;;;;2.95;1.70;;;;;;;10.05;100.00;100015.94;12181369;19;19998;-83
2023/12/26 16:20:35;;;;;;;3.72;2.20;;;;;;;9.99;100.00;100009.50;12201400;19;20002;-78
2023/12/26 16:24:37;;;;;;;3.47;1.52;;;;;;;9.93;100.00;100015.94;12186495;19;20002;-80
2023/12/26 16:28:40;;;;;;;;;;;;;;;9.93;100.00;100021.44;12198073;19;20027;-79
2023/12/26 16:32:42;;;;;;;4.05;2.13;;;;;;;9.94;100.00;100019.56;12195077;19;19914;-79
2023/12/26 16:36:46;;;;;;;5.00;2.22;;;;;;;9.97;100.00;100022.66;12173862;19;20473;-79
2023/12/26 16:40:49;;;;;;;3.25;2.05;;;;;;;9.96;100.00;100029.22;12196977;19;20014;-79
2023/12/26 16:44:53;;;;;;;5.15;2.20;;;;;;;9.94;100.00;100028.66;12198332;19;20010;-79
2023/12/26 16:48:59;;;;;;;5.07;2.33;;;;;;;9.92;100.00;100036.28;12174830;19;20010;-78
2023/12/26 16:53:05;;;;;;;4.38;2.40;;;;;;;9.93;100.00;100048.13;12197424;19;20018;-79
2023/12/26 16:57:07;;;;;;;9.20;2.60;;;;;;;9.98;100.00;100054.59;12204817;19;20014;-80
2023/12/26 17:01:09;;;;;;;3.67;2.03;;;;;;;9.96;100.00;100073.28;12182712;19;20027;-79
2023/12/26 17:05:12;;;;;;;3.72;2.03;;;;;;;9.85;100.00;100078.81;12199435;19;20014;-79
2023/12/26 17:09:14;;;;;;;3.07;2.00;;;;;;;9.79;100.00;100091.59;12198987;19;20465;-79
2023/12/26 17:13:16;;;;;;;6.43;2.10;;;;;;;9.75;100.00;100088.47;12184397;19;20022;-79
2023/12/26 17:17:18;;;;;;;4.57;1.70;;;;;;;9.68;100.00;100097.91;12197109;19;20010;-79
2023/12/26 17:21:20;;;;;;;4.60;1.80;;;;;;;9.64;100.00;100099.44;12204873;19;20002;-80
2023/12/26 17:25:22;;;;;;;6.80;2.00;;;;;;;9.58;100.00;100110.34;12174843;19;20316;-77
2023/12/26 17:29:25;;;;;;;11.10;2.95;;;;;;;9.51;100.00;100112.34;12193174;19;20579;-80
2023/12/26 17:33:27;;;;;;;9.23;3.45;;;;;;;9.43;100.00;100111.84;12198631;19;20014;-81
2023/12/26 17:37:30;;;;;;;7.18;2.97;;;;;;;9.29;100.00;100119.47;12182473;19;21352;-79
2023/12/26 17:41:32;;;;;;;;;;;;;;;9.16;100.00;100131.50;12208032;19;20010;-81
2023/12/26 17:45:38;;;;;;;6.78;3.05;;;;;;;9.07;100.00;100131.00;12196756;19;19914;-77
2023/12/26 17:49:41;;;;;;;6.88;2.80;;;;;;;9.03;100.00;100138.00;12214590;19;20128;-79
2023/12/26 17:53:43;;;;;;;6.23;3.30;;;;;;;9.02;100.00;100144.56;12217930;19;20014;-78
2023/12/26 17:57:52;;;;;;;3.88;2.05;;;;;;;8.99;100.00;100156.03;12200633;19;20018;-79
2023/12/26 18:01:55;;;;;;;8.98;2.40;;;;;;;8.96;100.00;100167.50;12218053;19;20010;-80
2023/12/26 18:05:56;;;;;;;7.68;2.15;;;;;;;8.88;100.00;100176.03;12219907;19;20022;-78
2023/12/26 18:10:04;;;;;;;6.60;2.60;;;;;;;8.81;100.00;100178.03;12200434;19;20023;-82
2023/12/26 18:14:10;;;;;;;8.48;3.25;;;;;;;8.74;100.00;100189.09;12223990;19;20235;-81
2023/12/26 18:18:12;;;;;;;6.63;2.90;;;;;;;8.64;100.00;100178.63;12210782;19;20747;-81
2023/12/26 18:22:15;;;;;;;10.85;2.92;;;;;;;8.56;100.00;100181.69;12192749;19;20002;-77
2023/12/26 18:26:18;;;;;;;14.73;3.17;;;;;;;8.51;100.00;100189.78;12209609;19;20031;-80
2023/12/26 18:30:25;;;;;;;7.18;2.85;;;;;;;8.51;100.00;100198.03;12203462;19;20017;-81
2023/12/26 18:34:27;;;;;;;4.57;2.70;;;;;;;8.48;100.00;100190.22;12185884;19;20006;-80
2023/12/26 18:38:30;;;;;;;;;;;;;;;8.46;100.00;100197.84;12208476;19;20013;-80
2023/12/26 18:42:32;;;;;;;9.27;3.83;;;;;;;8.51;100.00;100200.75;12208655;19;19915;-79